Terminal Aerodrome Forecast
Issued by NWS Shreveport, LA

Home | Current Version | Previous Version | Text Only | Print | Product List | Glossary On
Versions: 1 2 3 4 5 6 7 8 9 10 11 12 13 14 15
000
FTUS44 KSHV 211700 RRA
TAFSHV
TAF
KSHV 211751Z 2118/2218 36007KT P6SM SCT045
     FM220100 01006KT P6SM SCT045 SCT070 SCT250
     FM220400 02004KT P6SM BKN050
     FM220900 03008KT P6SM VCSH BKN040 OVC070
     FM221100 04009KT P6SM OVC045
     FM221500 06011KT P6SM BKN050=

USA.gov is the U.S. government's official web portal to all federal, state and local government web resources and services.